Time;durP1;ratioP1;P1;durP2;ratioP2;P2;SDS_P1;SDS_P2;PMS_P1;PMS_P2;Temp;Humidity;BMP_temperature;BMP_pressure;BME280_temperature;BME280_humidity;BME280_pressure;Samples;Min_cycle;Max_cycle;Signal;HPM_P1;HPM_P2
2022/04/23 00:00:53;;;;;;;14.33;12.83;;;;;;;14.73;49.36;97617.50;4121654;28;20234;-60
2022/04/23 00:02:58;;;;;;;14.67;12.97;;;;;;;14.32;49.98;97654.09;4122234;28;20264;-61
2022/04/23 00:05:00;;;;;;;17.50;11.77;;;;;;;14.11;50.72;97692.94;4117776;28;20237;-61
2022/04/23 00:07:02;;;;;;;14.20;12.47;;;;;;;14.18;50.32;97672.25;4124080;28;20242;-61
2022/04/23 00:09:04;;;;;;;15.37;12.77;;;;;;;14.55;49.89;97631.06;4121928;28;20230;-61
2022/04/23 00:11:05;;;;;;;14.57;13.00;;;;;;;14.28;50.43;97655.63;4126912;28;20230;-61
2022/04/23 00:13:07;;;;;;;14.23;12.83;;;;;;;14.46;50.26;97649.31;4126498;28;20234;-61
2022/04/23 00:15:09;;;;;;;15.70;13.27;;;;;;;14.09;50.52;97662.94;4125252;28;20238;-61
2022/04/23 00:17:11;;;;;;;16.93;13.13;;;;;;;14.24;50.43;97663.31;4128662;28;20234;-60
2022/04/23 00:19:12;;;;;;;14.73;13.23;;;;;;;14.12;50.71;97683.84;4125121;28;20235;-60
2022/04/23 00:21:14;;;;;;;15.87;13.93;;;;;;;14.14;50.60;97661.22;4128371;28;20701;-61
2022/04/23 00:23:16;;;;;;;16.53;13.80;;;;;;;14.62;49.62;97607.66;4127116;28;20312;-61
2022/04/23 00:25:17;;;;;;;14.50;13.00;;;;;;;14.67;49.57;97619.25;4126950;28;20230;-61
2022/04/23 00:27:19;;;;;;;15.10;13.60;;;;;;;14.50;49.65;97629.09;4125859;28;20233;-61
2022/04/23 00:29:21;;;;;;;15.30;12.60;;;;;;;14.35;50.19;97660.84;4125367;28;20230;-61
2022/04/23 00:31:22;;;;;;;15.07;13.47;;;;;;;14.39;50.09;97662.78;4125169;28;20724;-61
2022/04/23 00:33:24;;;;;;;15.53;13.27;;;;;;;14.35;50.36;97668.88;4127153;28;20232;-61
2022/04/23 00:35:26;;;;;;;15.17;13.30;;;;;;;13.91;50.75;97678.06;4142116;23;20244;-30
2022/04/23 00:37:28;;;;;;;15.50;13.90;;;;;;;14.06;50.84;97690.16;4143770;28;20241;-30
2022/04/23 00:39:30;;;;;;;17.07;14.20;;;;;;;14.12;50.96;97683.84;4143668;28;20245;-34
2022/04/23 00:41:52;;;;;;;17.80;13.83;;;;;;;13.97;51.22;97684.31;4143302;28;20291;-34
2022/04/23 00:43:53;;;;;;;15.90;14.20;;;;;;;14.00;51.05;97683.06;4143851;28;20248;-31
2022/04/23 00:45:56;;;;;;;17.03;15.23;;;;;;;13.69;51.55;97701.00;4147203;28;20245;-33
2022/04/23 00:47:58;;;;;;;16.47;14.73;;;;;;;13.26;52.08;97708.16;4142928;28;20291;-30
2022/04/23 00:49:59;;;;;;;15.83;14.20;;;;;;;13.55;51.85;97713.72;4146451;28;20299;-34
2022/04/23 00:52:02;;;;;;;16.63;14.80;;;;;;;14.06;50.77;97640.19;4144096;28;20237;-32
2022/04/23 00:54:07;;;;;;;16.10;14.20;;;;;;;13.41;52.29;97710.44;4149075;28;20233;-31
2022/04/23 00:56:09;;;;;;;19.27;15.47;;;;;;;13.25;52.34;97701.22;4143841;28;20862;-31
2022/04/23 00:58:11;;;;;;;18.97;15.53;;;;;;;13.18;52.65;97713.81;4144386;28;20233;-30
2022/04/23 01:00:13;;;;;;;18.30;15.93;;;;;;;13.28;52.47;97707.94;4145864;28;20236;-35
2022/04/23 01:02:15;;;;;;;17.83;15.70;;;;;;;13.53;51.98;97673.91;4145361;28;20775;-33
2022/04/23 01:04:17;;;;;;;16.60;14.70;;;;;;;12.99;52.69;97700.53;4146089;28;20260;-32
2022/04/23 01:06:19;;;;;;;16.63;14.90;;;;;;;13.24;52.52;97699.56;4143427;28;20237;-31
2022/04/23 01:08:20;;;;;;;21.30;15.73;;;;;;;12.95;52.79;97679.88;4146103;28;20283;-32
2022/04/23 01:10:22;;;;;;;18.80;15.20;;;;;;;13.30;52.29;97684.50;4146142;28;20244;-32
2022/04/23 01:12:24;;;;;;;17.90;15.37;;;;;;;13.72;51.59;97647.94;4144828;28;20237;-32
2022/04/23 01:14:26;;;;;;;16.97;15.17;;;;;;;13.64;51.86;97660.81;4141867;28;20296;-30
2022/04/23 01:16:28;;;;;;;18.17;15.73;;;;;;;12.91;52.84;97689.34;4144555;28;20269;-32
2022/04/23 01:18:31;;;;;;;17.70;15.37;;;;;;;13.33;52.49;97686.72;4143210;28;20237;-34
2022/04/23 01:20:33;;;;;;;17.73;14.80;;;;;;;13.40;51.98;97660.75;4143413;28;20649;-35
2022/04/23 01:22:36;;;;;;;19.63;15.67;;;;;;;13.36;52.10;97660.38;4142127;28;20237;-34
2022/04/23 01:24:38;;;;;;;18.80;16.80;;;;;;;13.45;52.57;97673.41;4147705;28;20852;-34
2022/04/23 01:26:41;;;;;;;18.13;15.87;;;;;;;13.05;52.87;97692.66;4143915;28;20237;-34
2022/04/23 01:28:42;;;;;;;19.13;16.23;;;;;;;13.00;52.91;97688.81;4146326;28;20233;-31
2022/04/23 01:30:44;;;;;;;18.33;15.40;;;;;;;13.30;53.04;97681.84;4146307;28;20232;-33
2022/04/23 01:32:46;;;;;;;17.40;14.87;;;;;;;12.77;53.44;97686.78;4144639;28;20602;-32
2022/04/23 01:34:49;;;;;;;18.53;16.23;;;;;;;13.54;52.42;97645.34;4149053;28;20233;-31
2022/04/23 01:36:51;;;;;;;17.60;15.47;;;;;;;13.04;53.40;97694.50;4142929;28;20240;-30
2022/04/23 01:38:52;;;;;;;19.40;16.37;;;;;;;12.94;52.91;97678.22;4145514;28;20241;-30
2022/04/23 01:40:54;;;;;;;18.83;16.83;;;;;;;13.61;51.90;97622.03;4143809;28;20342;-31
2022/04/23 01:42:56;;;;;;;20.47;16.77;;;;;;;13.45;52.22;97641.38;4145749;28;20235;-32
2022/04/23 01:44:58;;;;;;;19.97;16.63;;;;;;;13.37;52.38;97650.53;4146100;28;20997;-32
2022/04/23 01:47:00;;;;;;;19.10;17.00;;;;;;;12.63;53.74;97691.47;4144878;28;20241;-34
2022/04/23 01:49:02;;;;;;;17.17;15.30;;;;;;;13.24;52.49;97664.88;4146553;28;20228;-32
2022/04/23 01:51:03;;;;;;;21.83;16.27;;;;;;;12.53;53.95;97691.19;4147487;28;20244;-31
2022/04/23 01:53:05;;;;;;;20.57;16.47;;;;;;;13.30;52.82;97647.97;4144194;28;20660;-33
2022/04/23 01:55:07;;;;;;;18.43;15.87;;;;;;;12.56;54.47;97719.28;4147209;28;20245;-30
2022/04/23 01:57:09;;;;;;;18.33;16.30;;;;;;;13.35;52.63;97639.28;4144820;28;20239;-32
2022/04/23 01:59:11;;;;;;;18.47;16.40;;;;;;;12.52;54.51;97710.06;4143236;28;20709;-33
2022/04/23 02:01:13;;;;;;;19.20;16.23;;;;;;;13.18;52.86;97658.59;4145780;28;20290;-32
2022/04/23 02:03:15;;;;;;;17.53;15.73;;;;;;;12.69;54.37;97713.78;4143148;28;20314;-31
2022/04/23 02:05:17;;;;;;;18.20;16.30;;;;;;;12.76;53.42;97682.53;4145762;28;20323;-32
2022/04/23 02:07:18;;;;;;;19.43;16.53;;;;;;;13.14;53.29;97662.75;4142756;28;20237;-32
2022/04/23 02:09:20;;;;;;;19.07;16.73;;;;;;;13.02;53.49;97668.03;4143353;28;20764;-35
2022/04/23 02:11:22;;;;;;;17.90;16.00;;;;;;;13.16;52.88;97655.38;4144147;28;20263;-31
2022/04/23 02:13:24;;;;;;;19.33;17.00;;;;;;;13.34;52.26;97622.44;4148043;28;20647;-31
2022/04/23 02:15:25;;;;;;;20.47;17.17;;;;;;;13.15;52.68;97652.91;4148260;28;20268;-32
2022/04/23 02:17:39;;;;;;;18.53;16.53;;;;;;;12.82;53.86;97713.59;4143445;28;20221;-33
2022/04/23 02:19:41;;;;;;;19.27;16.67;;;;;;;13.01;53.63;97689.63;4143385;28;20229;-31
2022/04/23 02:21:45;;;;;;;18.30;16.40;;;;;;;12.31;54.92;97717.47;4142465;28;20244;-31
2022/04/23 02:23:47;;;;;;;18.97;16.97;;;;;;;13.09;53.19;97667.97;4147790;28;20244;-32
2022/04/23 02:25:49;;;;;;;18.47;16.47;;;;;;;12.53;54.51;97725.84;4143811;28;20291;-32
2022/04/23 02:27:51;;;;;;;19.97;17.27;;;;;;;13.07;53.09;97670.03;4143461;28;20295;-30
2022/04/23 02:29:53;;;;;;;17.87;15.97;;;;;;;12.05;55.43;97735.31;4142114;28;20629;-32
2022/04/23 02:31:55;;;;;;;20.90;16.77;;;;;;;12.27;54.81;97737.59;4147652;28;20248;-33
2022/04/23 02:33:57;;;;;;;21.30;16.83;;;;;;;12.59;54.12;97698.31;4142463;28;20240;-33
2022/04/23 02:35:59;;;;;;;19.63;16.73;;;;;;;12.37;55.28;97737.91;4143774;28;20235;-34
2022/04/23 02:38:04;;;;;;;22.20;18.57;;;;;;;12.77;54.16;97681.47;4144879;28;20241;-33
2022/04/23 02:40:07;;;;;;;19.27;17.27;;;;;;;12.90;53.72;97682.38;4144109;28;20241;-34
2022/04/23 02:42:09;;;;;;;18.80;16.83;;;;;;;12.75;54.33;97696.88;4142402;28;20287;-32
2022/04/23 02:44:11;;;;;;;18.87;16.87;;;;;;;12.75;54.35;97696.06;4139351;28;20300;-35
2022/04/23 02:46:14;;;;;;;20.37;16.17;;;;;;;12.17;55.66;97739.91;4147302;28;20632;-29
2022/04/23 02:48:16;;;;;;;19.83;16.47;;;;;;;12.66;54.49;97688.38;4142243;28;20311;-33
2022/04/23 02:50:33;;;;;;;19.80;17.67;;;;;;;12.94;54.06;97651.56;4142633;28;20988;-32
2022/04/23 02:52:34;;;;;;;21.93;17.17;;;;;;;13.27;53.29;97620.94;4142190;28;20232;-31
2022/04/23 02:54:38;;;;;;;21.40;17.87;;;;;;;12.82;54.05;97670.13;4145928;28;20240;-33
2022/04/23 02:56:40;;;;;;;19.27;17.10;;;;;;;12.73;54.56;97693.63;4144695;28;20236;-31
2022/04/23 02:58:43;;;;;;;19.00;16.90;;;;;;;12.35;55.26;97710.63;4146156;28;20299;-33
2022/04/23 03:00:45;;;;;;;20.27;17.50;;;;;;;12.48;55.07;97707.03;4143962;28;20281;-35
2022/04/23 03:02:47;;;;;;;20.00;16.83;;;;;;;12.28;55.00;97701.91;4138618;28;20237;-31
2022/04/23 03:04:50;;;;;;;20.53;17.37;;;;;;;12.33;55.25;97701.25;4147059;28;20323;-30
2022/04/23 03:06:51;;;;;;;19.87;17.13;;;;;;;12.02;56.24;97732.28;4142419;28;20662;-32
2022/04/23 03:08:53;;;;;;;19.67;16.87;;;;;;;12.39;55.26;97693.19;4140891;28;20931;-31
2022/04/23 03:10:55;;;;;;;19.57;17.43;;;;;;;11.63;57.14;97735.00;4143559;28;20244;-31
2022/04/23 03:12:57;;;;;;;18.40;16.40;;;;;;;12.31;55.70;97698.81;4146252;28;20617;-31
2022/04/23 03:14:59;;;;;;;18.87;16.77;;;;;;;12.44;55.50;97679.22;4145788;28;20259;-33
2022/04/23 03:17:01;;;;;;;18.40;16.47;;;;;;;12.53;54.88;97659.19;4141693;28;20228;-32
2022/04/23 03:19:02;;;;;;;20.60;17.67;;;;;;;12.06;55.84;97704.97;4144814;28;20294;-33
2022/04/23 03:21:04;;;;;;;21.47;17.43;;;;;;;11.74;57.12;97730.81;4141930;28;20248;-34
2022/04/23 03:23:06;;;;;;;23.70;17.53;;;;;;;12.16;56.20;97688.50;4145843;28;20251;-32
2022/04/23 03:25:11;;;;;;;20.40;18.17;;;;;;;12.39;55.70;97671.06;4145744;28;20775;-33
2022/04/23 03:27:13;;;;;;;20.57;17.40;;;;;;;12.18;56.29;97702.41;4136225;28;20267;-31
2022/04/23 03:29:15;;;;;;;20.10;17.67;;;;;;;11.67;57.42;97722.88;4146907;28;20243;-34
2022/04/23 03:31:17;;;;;;;19.83;17.00;;;;;;;11.91;57.35;97717.81;4144658;28;20233;-32
2022/04/23 03:33:18;;;;;;;20.73;16.43;;;;;;;11.72;57.20;97719.56;4141335;28;20687;-30
2022/04/23 03:35:21;;;;;;;19.07;17.07;;;;;;;12.42;55.88;97644.78;4147763;28;20228;-33
2022/04/23 03:37:23;;;;;;;21.87;16.97;;;;;;;11.90;57.27;97703.69;4142059;28;20229;-30
2022/04/23 03:39:24;;;;;;;19.93;16.93;;;;;;;12.41;55.90;97637.00;4145640;28;20229;-30
2022/04/23 03:41:26;;;;;;;19.40;16.63;;;;;;;11.90;56.88;97698.34;4143621;28;20259;-33
2022/04/23 03:43:30;;;;;;;18.37;15.93;;;;;;;11.33;58.21;97711.63;4137626;28;20621;-40
2022/04/23 03:45:33;;;;;;;18.13;16.20;;;;;;;12.42;55.95;97633.28;4144097;28;20244;-31
2022/04/23 03:47:34;;;;;;;17.63;15.73;;;;;;;11.95;57.19;97696.88;4149855;28;20237;-33
2022/04/23 03:49:36;;;;;;;18.40;16.40;;;;;;;12.33;56.33;97655.94;4147586;28;20282;-34
2022/04/23 03:51:38;;;;;;;18.37;16.10;;;;;;;11.67;57.58;97717.53;4145457;28;20229;-35
2022/04/23 03:53:40;;;;;;;18.53;15.83;;;;;;;12.41;56.09;97637.00;4149087;28;20243;-32
2022/04/23 03:55:42;;;;;;;17.40;15.17;;;;;;;11.34;58.46;97717.75;4146347;28;20642;-31
2022/04/23 03:57:45;;;;;;;20.60;17.60;;;;;;;11.82;57.51;97695.94;4146721;28;20241;-31
2022/04/23 03:59:47;;;;;;;17.93;14.93;;;;;;;11.73;58.02;97707.91;4144336;28;20295;-32
2022/04/23 04:01:49;;;;;;;22.73;16.63;;;;;;;11.54;58.27;97712.31;4147290;28;20240;-31
2022/04/23 04:03:51;;;;;;;18.83;16.57;;;;;;;10.70;61.16;97725.59;4146726;28;20237;-32
2022/04/23 04:05:53;;;;;;;18.27;16.10;;;;;;;11.02;59.23;97712.41;4146631;28;20273;-32
2022/04/23 04:07:55;;;;;;;17.80;15.90;;;;;;;11.70;58.42;97655.09;4150180;28;20294;-33
2022/04/23 04:10:00;;;;;;;17.73;15.83;;;;;;;11.95;57.90;97640.94;4146292;28;20287;-31
2022/04/23 04:12:02;;;;;;;19.97;15.93;;;;;;;11.86;57.79;97651.88;4143700;28;20768;-29
2022/04/23 04:14:04;;;;;;;20.87;16.70;;;;;;;11.54;58.63;97697.19;4147189;28;20236;-31
2022/04/23 04:16:06;;;;;;;20.17;16.90;;;;;;;10.99;59.70;97702.19;4147781;28;20243;-32
2022/04/23 04:18:10;;;;;;;17.90;15.93;;;;;;;11.01;60.74;97734.72;4143743;28;20237;-31
2022/04/23 04:20:13;;;;;;;18.30;16.33;;;;;;;11.34;59.52;97697.31;4147262;28;20709;-31
2022/04/23 04:22:15;;;;;;;20.53;16.33;;;;;;;11.73;58.64;97639.47;4144850;28;20237;-31
2022/04/23 04:24:17;;;;;;;20.43;16.87;;;;;;;11.48;59.40;97679.41;4147821;28;20252;-31
2022/04/23 04:26:19;;;;;;;20.33;17.07;;;;;;;11.73;58.84;97642.16;4147119;28;20245;-31
2022/04/23 04:28:21;;;;;;;18.00;16.10;;;;;;;10.84;61.19;97718.41;4145518;28;20291;-31
2022/04/23 04:30:23;;;;;;;18.57;15.53;;;;;;;11.05;61.05;97709.31;4145683;28;20233;-31
2022/04/23 04:32:25;;;;;;;18.70;16.57;;;;;;;11.02;60.80;97700.94;4143734;28;20241;-33
2022/04/23 04:34:32;;;;;;;19.43;16.43;;;;;;;11.05;60.78;97700.53;4149940;28;20237;-31
2022/04/23 04:36:34;;;;;;;18.87;16.17;;;;;;;11.43;59.88;97641.97;4144639;28;20284;-35
2022/04/23 04:38:35;;;;;;;21.80;18.43;;;;;;;11.52;59.81;97656.63;4133509;28;20803;-35
2022/04/23 04:40:37;;;;;;;21.63;17.13;;;;;;;11.18;61.15;97677.31;4135425;28;20299;-32
2022/04/23 04:42:39;;;;;;;20.30;16.57;;;;;;;11.13;60.94;97684.31;4134161;28;20998;-37
2022/04/23 04:44:41;;;;;;;19.37;16.87;;;;;;;10.82;61.18;97699.22;4143346;28;20267;-30
2022/04/23 04:46:42;;;;;;;19.07;16.47;;;;;;;11.11;60.65;97681.06;4145981;28;20582;-31
2022/04/23 04:48:44;;;;;;;18.73;16.40;;;;;;;10.72;61.63;97712.91;4145945;28;20241;-30
2022/04/23 04:50:46;;;;;;;19.80;17.37;;;;;;;11.20;61.08;97677.13;4146001;28;20283;-32
2022/04/23 04:52:49;;;;;;;18.93;16.57;;;;;;;11.64;59.51;97622.13;4147568;28;20237;-33
2022/04/23 04:54:51;;;;;;;18.13;15.80;;;;;;;11.16;61.23;97683.91;4148051;28;20656;-30
2022/04/23 04:56:53;;;;;;;19.27;16.57;;;;;;;11.16;61.20;97682.06;4146818;28;20241;-31
2022/04/23 04:58:55;;;;;;;19.97;16.83;;;;;;;10.62;62.94;97733.78;4144506;28;20237;-32
2022/04/23 05:00:57;;;;;;;20.77;16.60;;;;;;;10.67;63.05;97731.31;4146154;28;20311;-32
2022/04/23 05:02:59;;;;;;;19.03;17.03;;;;;;;11.11;61.54;97678.41;4140336;28;20240;-32
2022/04/23 05:05:01;;;;;;;18.50;16.50;;;;;;;11.08;61.75;97689.47;4147917;28;20275;-29
2022/04/23 05:07:04;;;;;;;18.20;16.23;;;;;;;11.06;61.91;97702.97;4144304;28;20232;-31
2022/04/23 05:09:05;;;;;;;19.47;16.70;;;;;;;11.17;61.61;97691.69;4144593;28;20303;-31
2022/04/23 05:11:08;;;;;;;20.67;16.77;;;;;;;11.26;61.68;97684.25;4143490;28;20307;-31
2022/04/23 05:13:10;;;;;;;17.43;15.57;;;;;;;11.79;60.13;97634.31;4143364;28;20237;-36
2022/04/23 05:15:12;;;;;;;17.67;15.77;;;;;;;10.73;62.55;97725.16;4144542;28;20256;-32
2022/04/23 05:17:14;;;;;;;19.17;15.43;;;;;;;10.93;62.14;97714.47;4143426;28;20244;-31
2022/04/23 05:19:15;;;;;;;16.87;15.07;;;;;;;11.36;61.70;97662.50;4138405;28;20288;-31
2022/04/23 05:21:17;;;;;;;18.20;15.17;;;;;;;10.79;62.82;97731.53;4148366;28;20240;-33
2022/04/23 05:23:19;;;;;;;17.73;15.43;;;;;;;11.66;60.90;97627.25;4141419;28;20229;-32
2022/04/23 05:25:21;;;;;;;16.80;14.80;;;;;;;10.67;62.88;97714.53;4147984;28;20303;-29
2022/04/23 05:27:26;;;;;;;17.73;14.57;;;;;;;10.46;64.57;97761.63;4139252;28;20279;-29
2022/04/23 05:29:27;;;;;;;16.83;15.00;;;;;;;11.01;62.49;97686.03;4139427;28;20233;-31
2022/04/23 05:31:29;;;;;;;16.13;14.33;;;;;;;10.69;63.96;97745.22;4148631;28;20820;-30
2022/04/23 05:33:31;;;;;;;18.23;15.43;;;;;;;10.91;63.21;97710.41;4145296;28;20287;-29
2022/04/23 05:35:34;;;;;;;16.97;15.13;;;;;;;10.84;63.29;97717.63;4143799;28;20233;-30
2022/04/23 05:37:36;;;;;;;17.37;15.47;;;;;;;10.63;64.05;97730.09;4141440;28;20237;-30
2022/04/23 05:39:38;;;;;;;16.43;14.70;;;;;;;10.77;64.27;97707.81;4145032;28;25309;-34
2022/04/23 05:41:40;;;;;;;16.87;14.57;;;;;;;10.77;63.96;97691.06;4142879;28;20233;-31
2022/04/23 05:43:42;;;;;;;19.90;15.47;;;;;;;11.02;63.02;97661.06;4147408;28;20237;-31
2022/04/23 05:45:44;;;;;;;16.40;14.23;;;;;;;9.79;66.26;97735.09;4146511;28;20252;-30
2022/04/23 05:47:45;;;;;;;15.03;13.43;;;;;;;10.22;64.85;97750.59;4144047;28;20345;-31
2022/04/23 05:49:48;;;;;;;18.33;15.13;;;;;;;10.24;64.98;97764.53;4147396;28;20236;-32
2022/04/23 05:51:53;;;;;;;16.17;14.47;;;;;;;10.43;64.57;97740.75;4141751;28;20237;-32
2022/04/23 05:53:54;;;;;;;16.20;14.20;;;;;;;9.90;66.31;97759.41;4145772;28;20655;-34
2022/04/23 05:55:56;;;;;;;15.60;13.50;;;;;;;9.72;67.43;97774.06;4140226;28;20233;-31
2022/04/23 05:57:58;;;;;;;15.80;14.00;;;;;;;10.04;65.96;97764.53;4147194;28;20286;-31
2022/04/23 06:00:00;;;;;;;15.90;14.13;;;;;;;11.26;62.87;97625.72;4142624;28;20325;-33
2022/04/23 06:02:03;;;;;;;15.93;13.70;;;;;;;11.01;63.45;97664.75;4147755;28;20245;-33
2022/04/23 06:04:11;;;;;;;15.93;14.33;;;;;;;10.87;63.98;97699.38;4137772;28;20233;-31
2022/04/23 06:06:13;;;;;;;16.67;14.20;;;;;;;11.03;63.41;97676.00;4143124;28;20245;-32
2022/04/23 06:08:15;;;;;;;15.40;13.80;;;;;;;10.72;64.76;97722.72;4143831;28;20244;-31
2022/04/23 06:10:17;;;;;;;14.77;13.27;;;;;;;10.99;64.21;97678.28;4142367;28;20873;-32
2022/04/23 06:12:18;;;;;;;15.50;13.73;;;;;;;10.65;64.26;97725.41;4145702;28;20229;-29
2022/04/23 06:14:20;;;;;;;15.17;13.43;;;;;;;10.70;64.25;97706.16;4146842;28;20240;-32
2022/04/23 06:16:22;;;;;;;16.47;14.77;;;;;;;10.67;64.91;97730.50;4143853;28;20233;-32
2022/04/23 06:18:25;;;;;;;15.77;14.17;;;;;;;11.41;63.27;97653.84;4143968;28;20228;-31
2022/04/23 06:20:27;;;;;;;16.27;13.47;;;;;;;10.36;64.98;97758.56;4142596;28;20279;-29
2022/04/23 06:22:29;;;;;;;14.17;12.63;;;;;;;10.22;65.76;97790.44;4146355;28;20291;-30
2022/04/23 06:24:31;;;;;;;17.33;13.67;;;;;;;10.86;64.07;97702.25;4147969;28;20229;-33
2022/04/23 06:26:32;;;;;;;14.67;13.07;;;;;;;11.12;64.06;97664.91;4145763;28;20244;-31
2022/04/23 06:28:34;;;;;;;15.43;13.63;;;;;;;10.82;64.32;97712.50;4144248;28;20236;-31
2022/04/23 06:30:37;;;;;;;15.33;13.27;;;;;;;11.16;63.39;97679.38;4141190;28;20229;-32
2022/04/23 06:32:39;;;;;;;14.27;12.77;;;;;;;10.90;64.29;97709.59;4139979;28;20237;-29
2022/04/23 06:34:41;;;;;;;13.93;12.23;;;;;;;10.76;65.20;97739.91;4145087;28;20680;-32
2022/04/23 06:36:43;;;;;;;14.37;12.87;;;;;;;11.28;64.06;97666.22;4138319;28;20244;-35
2022/04/23 06:38:45;;;;;;;14.13;12.60;;;;;;;11.33;63.47;97662.94;4144013;28;20299;-33
2022/04/23 06:40:47;;;;;;;13.10;11.70;;;;;;;10.36;66.22;97793.09;4145413;28;20241;-29
2022/04/23 06:42:49;;;;;;;13.63;12.23;;;;;;;11.24;64.44;97670.34;4144209;28;20246;-31
2022/04/23 06:44:51;;;;;;;13.93;12.50;;;;;;;11.63;63.05;97657.78;4146919;28;20240;-31
2022/04/23 06:46:53;;;;;;;13.33;11.70;;;;;;;11.79;62.53;97642.31;4160375;22;20283;-30
2022/04/23 06:48:55;;;;;;;14.00;12.50;;;;;;;11.20;64.04;97709.03;4143043;28;20299;-30
2022/04/23 06:50:57;;;;;;;13.17;11.73;;;;;;;10.36;65.98;97787.78;4143021;28;20291;-30
2022/04/23 06:52:59;;;;;;;13.50;11.97;;;;;;;10.98;65.69;97713.84;4142972;28;20276;-30
2022/04/23 06:55:01;;;;;;;14.30;12.13;;;;;;;10.54;65.91;97772.03;4142458;28;20230;-30
2022/04/23 06:57:03;;;;;;;12.77;11.47;;;;;;;11.75;63.66;97647.25;4150384;28;20251;-30
2022/04/23 06:59:05;;;;;;;14.00;12.60;;;;;;;12.14;62.17;97631.97;4145047;28;20229;-30
2022/04/23 07:01:07;;;;;;;13.37;11.97;;;;;;;11.13;65.45;97722.38;4144525;28;20247;-30
2022/04/23 07:03:09;;;;;;;11.37;10.27;;;;;;;10.54;65.22;97757.94;4140535;28;20831;-30
2022/04/23 07:05:11;;;;;;;11.47;10.20;;;;;;;11.01;64.72;97736.56;4147876;28;20225;-30
2022/04/23 07:07:12;;;;;;;12.43;11.07;;;;;;;11.48;63.72;97676.75;4143282;28;20287;-30
2022/04/23 07:09:14;;;;;;;12.30;11.00;;;;;;;11.46;64.17;97685.94;4147840;28;20229;-30
2022/04/23 07:11:16;;;;;;;13.20;10.67;;;;;;;11.60;63.60;97657.41;4143547;28;20295;-30
2022/04/23 07:13:18;;;;;;;11.97;10.70;;;;;;;11.46;64.00;97673.47;4145784;28;20287;-30
2022/04/23 07:15:19;;;;;;;11.93;10.73;;;;;;;10.82;64.36;97723.13;4145039;28;20225;-30
2022/04/23 07:17:25;;;;;;;11.80;10.60;;;;;;;11.33;64.19;97669.06;4147706;28;20586;-30
2022/04/23 07:19:27;;;;;;;12.33;11.00;;;;;;;11.34;63.21;97654.72;4148188;28;20233;-30
2022/04/23 07:21:28;;;;;;;12.27;10.97;;;;;;;11.44;63.91;97662.25;4154226;28;20237;-30
2022/04/23 07:25:51;;;;;;;12.23;10.67;;;;;;;10.77;64.54;97718.44;4147773;28;20236;-30
2022/04/23 07:27:53;;;;;;;11.57;10.37;;;;;;;11.10;65.35;97712.16;4145852;28;20241;-30
2022/04/23 07:29:55;;;;;;;13.20;11.30;;;;;;;11.01;64.14;97715.28;4146868;28;20268;-30
2022/04/23 07:31:58;;;;;;;12.87;11.10;;;;;;;10.74;64.92;97744.59;4150528;28;20286;-29
2022/04/23 07:38:40;;;;;;;13.20;11.00;;;;;;;12.21;62.27;97622.03;4145284;28;20788;-30
2022/04/23 07:40:43;;;;;;;12.70;10.60;;;;;;;11.62;63.56;97672.13;4144782;28;20229;-30
2022/04/23 07:42:46;;;;;;;13.30;10.97;;;;;;;11.63;63.39;97672.94;4145790;28;20237;-30
2022/04/23 07:44:48;;;;;;;11.87;10.47;;;;;;;11.38;64.25;97718.16;4145679;28;20241;-30
2022/04/23 07:46:52;;;;;;;11.50;10.30;;;;;;;10.19;66.84;97798.00;4146059;28;20785;-30
2022/04/23 07:48:54;;;;;;;11.60;10.40;;;;;;;11.19;64.23;97710.09;4150434;28;20251;-30
2022/04/23 07:50:56;;;;;;;10.57;9.47;;;;;;;12.47;61.75;97614.75;4147030;28;20245;-30
2022/04/23 07:52:57;;;;;;;17.70;11.00;;;;;;;11.75;63.93;97665.88;4148363;28;20279;-30
2022/04/23 07:55:00;;;;;;;14.20;9.93;;;;;;;12.40;61.90;97622.84;4147715;28;20272;-30
2022/04/23 07:57:02;;;;;;;11.93;10.37;;;;;;;12.13;62.36;97626.84;4154904;28;20239;-30
2022/04/23 07:59:04;;;;;;;11.40;10.20;;;;;;;11.68;63.90;97689.91;4160871;28;20916;-30
2022/04/23 08:01:06;;;;;;;11.67;9.57;;;;;;;12.17;62.77;97639.50;4146716;28;20850;-30
2022/04/23 08:03:08;;;;;;;12.37;10.67;;;;;;;11.95;62.42;97676.41;4147135;28;20233;-30
2022/04/23 08:05:12;;;;;;;11.70;10.50;;;;;;;11.51;62.86;97692.28;4149719;28;20233;-30
2022/04/23 08:07:15;;;;;;;11.50;10.30;;;;;;;12.11;62.21;97651.84;4146374;28;20744;-30
2022/04/23 08:09:16;;;;;;;12.00;10.37;;;;;;;12.62;60.69;97612.56;4148537;28;20241;-30
2022/04/23 08:11:19;;;;;;;11.30;10.13;;;;;;;12.30;61.57;97643.88;4147318;28;20228;-30
2022/04/23 08:13:21;;;;;;;11.33;10.13;;;;;;;11.89;63.04;97688.72;4142185;28;20232;-30
2022/04/23 08:15:23;;;;;;;11.63;9.70;;;;;;;12.19;62.74;97653.41;4150570;28;20276;-30
2022/04/23 08:17:25;;;;;;;10.77;9.67;;;;;;;11.95;62.47;97656.94;4144187;28;20233;-30
2022/04/23 08:19:27;;;;;;;13.40;10.40;;;;;;;11.45;64.03;97734.91;4145599;28;20233;-30
2022/04/23 08:21:28;;;;;;;13.03;10.27;;;;;;;10.91;64.19;97758.28;4145391;28;20233;-30
2022/04/23 08:23:33;;;;;;;12.33;10.20;;;;;;;12.53;60.76;97613.06;4143402;28;20750;-30
2022/04/23 08:25:35;;;;;;;10.87;9.73;;;;;;;12.07;62.17;97674.66;4143938;28;20232;-30
2022/04/23 08:27:54;;;;;;;12.63;9.73;;;;;;;12.10;62.55;97641.44;4148783;28;20295;-30
2022/04/23 08:32:16;;;;;;;12.70;9.77;;;;;;;12.40;61.45;97622.84;4142700;28;20279;-30
2022/04/23 08:34:19;;;;;;;12.43;9.90;;;;;;;12.35;60.51;97621.88;4155133;28;20275;-30
2022/04/23 08:36:21;;;;;;;10.43;9.33;;;;;;;12.62;60.78;97611.72;4143675;28;20282;-30
2022/04/23 08:38:23;;;;;;;10.00;8.93;;;;;;;12.04;62.43;97683.06;4148617;28;20240;-30
2022/04/23 08:40:27;;;;;;;11.77;9.33;;;;;;;12.67;61.36;97627.84;4146240;28;21504;-30
2022/04/23 08:42:31;;;;;;;10.60;8.97;;;;;;;12.05;62.64;97671.41;4150723;28;20649;-31
2022/04/23 08:44:32;;;;;;;10.93;9.33;;;;;;;12.99;60.75;97609.00;4152955;28;20233;-30
2022/04/23 08:46:36;;;;;;;9.87;8.87;;;;;;;12.54;61.32;97609.34;4151115;28;20310;-30
2022/04/23 08:48:38;;;;;;;10.20;8.17;;;;;;;13.21;60.03;97596.78;4147208;28;20247;-30
2022/04/23 08:50:42;;;;;;;11.90;8.57;;;;;;;12.83;61.12;97597.91;4152569;28;20273;-30
2022/04/23 08:52:51;;;;;;;9.03;7.87;;;;;;;13.01;59.62;97575.72;4151014;28;20660;-30
2022/04/23 08:54:53;;;;;;;9.20;7.97;;;;;;;13.17;60.33;97595.59;4150173;28;20232;-30
2022/04/23 08:56:55;;;;;;;8.53;7.63;;;;;;;12.46;61.24;97642.47;4147761;28;20236;-30
2022/04/23 08:58:57;;;;;;;9.03;8.07;;;;;;;12.88;60.45;97607.94;4152361;28;20232;-30
2022/04/23 09:00:58;;;;;;;8.37;7.40;;;;;;;12.67;60.43;97619.84;4143766;28;20241;-30
2022/04/23 09:03:00;;;;;;;8.87;7.97;;;;;;;12.72;61.43;97613.84;4145197;28;20237;-30
2022/04/23 09:05:03;;;;;;;7.90;7.10;;;;;;;13.13;59.79;97585.59;4149112;28;20243;-30
2022/04/23 09:07:04;;;;;;;7.63;6.80;;;;;;;12.57;60.58;97622.25;4144449;28;20241;-30
2022/04/23 09:09:20;;;;;;;7.33;6.30;;;;;;;12.75;60.16;97635.53;4150006;28;20267;-30
2022/04/23 09:11:35;;;;;;;8.97;7.00;;;;;;;12.62;60.86;97633.03;4136089;28;20235;-31
2022/04/23 09:13:37;;;;;;;7.87;6.50;;;;;;;12.84;60.80;97631.53;4148507;28;20236;-30
2022/04/23 09:24:55;;;;;;;6.47;5.60;;;;;;;13.12;59.50;97603.47;4152478;28;20718;-30
2022/04/23 09:27:07;;;;;;;6.50;5.80;;;;;;;13.71;58.11;97539.47;4152965;28;20783;-30
2022/04/23 09:29:18;;;;;;;6.67;5.90;;;;;;;13.83;57.92;97552.84;4145423;28;20264;-31
2022/04/23 09:31:19;;;;;;;6.47;5.37;;;;;;;12.40;59.80;97662.81;4147760;28;20770;-30
2022/04/23 09:33:29;;;;;;;7.60;5.97;;;;;;;14.04;57.92;97531.91;4150135;28;20644;-30
2022/04/23 09:35:31;;;;;;;7.87;6.00;;;;;;;14.26;56.83;97513.34;4146392;28;20224;-30
2022/04/23 09:39:53;;;;;;;6.53;5.63;;;;;;;14.29;57.04;97527.09;4145879;28;20249;-30
2022/04/23 09:42:10;;;;;;;6.60;5.90;;;;;;;13.37;58.86;97619.31;4142353;28;20291;-30
2022/04/23 09:44:12;;;;;;;7.10;5.93;;;;;;;14.44;56.67;97533.75;4140623;28;20220;-30
2022/04/23 09:46:14;;;;;;;6.27;5.30;;;;;;;13.69;57.76;97567.47;4145604;28;20244;-30